sensor_id;sensor_type;location;lat;lon;timestamp;pressure;altitude;pressure_sealevel;temperature;humidity
28181;BME280;15464;50.988;10.318;2022-11-24T10:26:38;98444.31;;;8.32;97.41
28181;BME280;15464;50.988;10.318;2022-11-24T10:29:18;98436.38;;;8.32;97.02
28181;BME280;15464;50.988;10.318;2022-11-24T10:31:51;98439.63;;;8.36;98.00
28181;BME280;15464;50.988;10.318;2022-11-24T10:34:28;98432.38;;;8.38;98.03
28181;BME280;15464;50.988;10.318;2022-11-24T10:39:38;98436.97;;;8.36;96.80
28181;BME280;15464;50.988;10.318;2022-11-24T10:42:29;98436.97;;;8.36;96.73
28181;BME280;15464;50.988;10.318;2022-11-24T10:45:15;98436.00;;;8.37;96.94
28181;BME280;15464;50.988;10.318;2022-11-24T10:47:43;98429.28;;;8.33;96.67
28181;BME280;15464;50.988;10.318;2022-11-24T10:50:32;98429.66;;;8.28;96.33
28181;BME280;15464;50.988;10.318;2022-11-24T10:58:29;98430.66;;;8.48;96.31
28181;BME280;15464;50.988;10.318;2022-11-24T11:03:52;98433.94;;;8.40;95.41
28181;BME280;15464;50.988;10.318;2022-11-24T11:06:22;98441.59;;;8.43;95.70
28181;BME280;15464;50.988;10.318;2022-11-24T11:11:39;98444.00;;;8.46;95.15
28181;BME280;15464;50.988;10.318;2022-11-24T11:14:09;98446.63;;;8.46;94.02
28181;BME280;15464;50.988;10.318;2022-11-24T11:16:37;98452.47;;;8.50;94.13
28181;BME280;15464;50.988;10.318;2022-11-24T11:19:34;98453.63;;;8.57;93.94
28181;BME280;15464;50.988;10.318;2022-11-24T11:22:32;98458.28;;;8.65;94.16
28181;BME280;15464;50.988;10.318;2022-11-24T11:27:32;98460.81;;;8.66;93.16
28181;BME280;15464;50.988;10.318;2022-11-24T11:33:02;98463.03;;;8.71;92.13
28181;BME280;15464;50.988;10.318;2022-11-24T11:35:50;98465.81;;;8.69;91.97
28181;BME280;15464;50.988;10.318;2022-11-24T11:38:16;98471.94;;;8.70;91.33
28181;BME280;15464;50.988;10.318;2022-11-24T11:40:47;98461.25;;;8.71;91.88
28181;BME280;15464;50.988;10.318;2022-11-24T11:43:26;98465.66;;;8.61;91.48
28181;BME280;15464;50.988;10.318;2022-11-24T11:46:04;98467.81;;;8.56;92.07
28181;BME280;15464;50.988;10.318;2022-11-24T11:48:36;98473.19;;;8.45;93.22
28181;BME280;15464;50.988;10.318;2022-11-24T11:56:37;98482.41;;;8.19;95.52
28181;BME280;15464;50.988;10.318;2022-11-24T12:04:43;98483.69;;;8.35;96.17
28181;BME280;15464;50.988;10.318;2022-11-24T12:10:27;98488.41;;;8.21;96.44
28181;BME280;15464;50.988;10.318;2022-11-24T12:13:13;98488.03;;;8.25;96.04
28181;BME280;15464;50.988;10.318;2022-11-24T12:15:56;98484.53;;;8.36;95.90
28181;BME280;15464;50.988;10.318;2022-11-24T12:18:33;98485.72;;;8.43;95.34
28181;BME280;15464;50.988;10.318;2022-11-24T12:26:54;98496.66;;;8.59;94.16
28181;BME280;15464;50.988;10.318;2022-11-24T12:32:51;98502.31;;;8.75;92.90
28181;BME280;15464;50.988;10.318;2022-11-24T12:34:53;98500.81;;;8.82;92.81
28181;BME280;15464;50.988;10.318;2022-11-24T12:37:35;98500.78;;;9.03;92.33
28181;BME280;15464;50.988;10.318;2022-11-24T12:45:21;98496.28;;;9.64;90.23
28181;BME280;15464;50.988;10.318;2022-11-24T12:50:35;98497.16;;;9.84;89.43
28181;BME280;15464;50.988;10.318;2022-11-24T12:53:19;98499.66;;;9.95;88.63
28181;BME280;15464;50.988;10.318;2022-11-24T12:55:50;98505.56;;;10.18;88.03
28181;BME280;15464;50.988;10.318;2022-11-24T12:58:24;98506.56;;;10.27;88.66
28181;BME280;15464;50.988;10.318;2022-11-24T13:01:33;98513.09;;;10.32;86.61
28181;BME280;15464;50.988;10.318;2022-11-24T13:07:01;98512.66;;;10.66;85.42
28181;BME280;15464;50.988;10.318;2022-11-24T13:09:29;98514.75;;;10.62;84.55
28181;BME280;15464;50.988;10.318;2022-11-24T13:12:14;98516.69;;;10.12;83.70
28181;BME280;15464;50.988;10.318;2022-11-24T13:14:42;98518.38;;;10.13;84.73
28181;BME280;15464;50.988;10.318;2022-11-24T13:17:29;98515.28;;;9.89;83.98
28181;BME280;15464;50.988;10.318;2022-11-24T13:20:23;98526.69;;;9.80;84.43
28181;BME280;15464;50.988;10.318;2022-11-24T13:22:52;98534.72;;;9.49;84.70
28181;BME280;15464;50.988;10.318;2022-11-24T13:27:56;98537.84;;;9.43;84.49
28181;BME280;15464;50.988;10.318;2022-11-24T13:41:58;98548.81;;;9.29;82.37
28181;BME280;15464;50.988;10.318;2022-11-24T13:44:24;98552.69;;;9.25;83.73
28181;BME280;15464;50.988;10.318;2022-11-24T13:49:59;98557.38;;;9.12;84.16
28181;BME280;15464;50.988;10.318;2022-11-24T14:02:56;98566.09;;;8.82;85.11
28181;BME280;15464;50.988;10.318;2022-11-24T14:05:32;98566.47;;;8.57;85.00
28181;BME280;15464;50.988;10.318;2022-11-24T14:08:01;98569.38;;;8.54;85.59
28181;BME280;15464;50.988;10.318;2022-11-24T14:10:33;98575.75;;;8.51;85.26
28181;BME280;15464;50.988;10.318;2022-11-24T14:18:37;98590.13;;;8.58;85.31
28181;BME280;15464;50.988;10.318;2022-11-24T14:21:21;98582.66;;;8.63;84.72
28181;BME280;15464;50.988;10.318;2022-11-24T14:23:57;98586.03;;;8.65;85.64
28181;BME280;15464;50.988;10.318;2022-11-24T14:26:32;98588.53;;;8.67;85.50
28181;BME280;15464;50.988;10.318;2022-11-24T14:29:16;98586.03;;;8.65;85.81
28181;BME280;15464;50.988;10.318;2022-11-24T14:31:56;98588.44;;;8.57;85.72
28181;BME280;15464;50.988;10.318;2022-11-24T14:34:25;98586.72;;;8.46;86.00
28181;BME280;15464;50.988;10.318;2022-11-24T14:36:54;98591.72;;;8.49;86.39
28181;BME280;15464;50.988;10.318;2022-11-24T14:39:23;98603.31;;;8.37;86.43
28181;BME280;15464;50.988;10.318;2022-11-24T14:42:01;98598.63;;;8.41;86.28
28181;BME280;15464;50.988;10.318;2022-11-24T14:44:41;98601.78;;;8.35;86.58
28181;BME280;15464;50.988;10.318;2022-11-24T14:47:30;98600.94;;;8.34;86.69
28181;BME280;15464;50.988;10.318;2022-11-24T14:50:13;98608.72;;;8.25;86.62
28181;BME280;15464;50.988;10.318;2022-11-24T14:52:52;98610.78;;;8.32;87.61
28181;BME280;15464;50.988;10.318;2022-11-24T14:55:28;98619.53;;;8.22;88.04
28181;BME280;15464;50.988;10.318;2022-11-24T14:57:56;98623.16;;;8.21;88.60
28181;BME280;15464;50.988;10.318;2022-11-24T15:02:55;98626.91;;;8.18;89.08
28181;BME280;15464;50.988;10.318;2022-11-24T15:08:17;98630.34;;;8.19;89.60
28181;BME280;15464;50.988;10.318;2022-11-24T15:10:44;98634.69;;;8.20;89.68
28181;BME280;15464;50.988;10.318;2022-11-24T15:13:19;98633.84;;;8.19;90.06
28181;BME280;15464;50.988;10.318;2022-11-24T15:15:50;98630.34;;;8.19;90.16
28181;BME280;15464;50.988;10.318;2022-11-24T15:18:29;98644.41;;;8.19;90.33
28181;BME280;15464;50.988;10.318;2022-11-24T15:20:58;98645.00;;;8.23;90.43
28181;BME280;15464;50.988;10.318;2022-11-24T15:23:30;98642.75;;;8.18;90.73
28181;BME280;15464;50.988;10.318;2022-11-24T15:28:46;98648.28;;;8.04;91.55
28181;BME280;15464;50.988;10.318;2022-11-24T15:31:13;98650.81;;;8.05;91.70
28181;BME280;15464;50.988;10.318;2022-11-24T15:33:40;98650.81;;;8.05;91.51
28181;BME280;15464;50.988;10.318;2022-11-24T15:36:07;98647.31;;;7.94;92.10
28181;BME280;15464;50.988;10.318;2022-11-24T15:38:34;98657.53;;;7.87;92.52
28181;BME280;15464;50.988;10.318;2022-11-24T15:41:01;98659.69;;;7.82;93.04
28181;BME280;15464;50.988;10.318;2022-11-24T15:43:35;98657.53;;;7.87;93.00
28181;BME280;15464;50.988;10.318;2022-11-24T15:46:06;98654.19;;;7.85;93.09
28181;BME280;15464;50.988;10.318;2022-11-24T15:48:33;98659.69;;;7.71;94.00
28181;BME280;15464;50.988;10.318;2022-11-24T15:51:01;98657.66;;;7.75;94.17
28181;BME280;15464;50.988;10.318;2022-11-24T15:53:32;98666.88;;;7.69;94.58
28181;BME280;15464;50.988;10.318;2022-11-24T15:56:02;98666.19;;;7.67;94.58
28181;BME280;15464;50.988;10.318;2022-11-24T15:58:29;98664.72;;;7.63;94.81
28181;BME280;15464;50.988;10.318;2022-11-24T16:00:55;98680.34;;;7.66;94.76
28181;BME280;15464;50.988;10.318;2022-11-24T16:03:22;98672.78;;;7.61;94.96
28181;BME280;15464;50.988;10.318;2022-11-24T16:06:14;98676.50;;;7.59;95.25
28181;BME280;15464;50.988;10.318;2022-11-24T16:08:49;98675.75;;;7.57;95.17
28181;BME280;15464;50.988;10.318;2022-11-24T16:11:16;98679.34;;;7.56;95.60
28181;BME280;15464;50.988;10.318;2022-11-24T16:13:43;98686.09;;;7.60;95.10
28181;BME280;15464;50.988;10.318;2022-11-24T16:16:17;98684.63;;;7.56;95.30
28181;BME280;15464;50.988;10.318;2022-11-24T16:18:44;98685.94;;;7.50;95.69
28181;BME280;15464;50.988;10.318;2022-11-24T16:21:11;98683.69;;;7.46;95.79
28181;BME280;15464;50.988;10.318;2022-11-24T16:23:38;98685.34;;;7.47;95.71
28181;BME280;15464;50.988;10.318;2022-11-24T16:26:05;98685.59;;;7.44;96.00
28181;BME280;15464;50.988;10.318;2022-11-24T16:28:32;98689.91;;;7.45;95.67
28181;BME280;15464;50.988;10.318;2022-11-24T16:30:58;98688.09;;;7.45;95.67
28181;BME280;15464;50.988;10.318;2022-11-24T16:33:27;98695.44;;;7.42;95.77
28181;BME280;15464;50.988;10.318;2022-11-24T16:35:53;98685.22;;;7.37;95.84
28181;BME280;15464;50.988;10.318;2022-11-24T16:38:20;98696.59;;;7.38;96.07
28181;BME280;15464;50.988;10.318;2022-11-24T16:40:53;98681.97;;;7.34;95.79
28181;BME280;15464;50.988;10.318;2022-11-24T16:43:22;98700.44;;;7.34;96.03
28181;BME280;15464;50.988;10.318;2022-11-24T16:46:05;98703.34;;;7.31;96.22
28181;BME280;15464;50.988;10.318;2022-11-24T16:48:45;98705.97;;;7.31;96.41
28181;BME280;15464;50.988;10.318;2022-11-24T16:51:12;98704.28;;;7.29;96.25
28181;BME280;15464;50.988;10.318;2022-11-24T16:53:39;98714.09;;;7.27;96.50
28181;BME280;15464;50.988;10.318;2022-11-24T16:56:06;98713.16;;;7.28;96.31
28181;BME280;15464;50.988;10.318;2022-11-24T16:58:36;98720.13;;;7.29;96.18
28181;BME280;15464;50.988;10.318;2022-11-24T17:01:08;98715.28;;;7.23;96.66
28181;BME280;15464;50.988;10.318;2022-11-24T17:03:36;98724.16;;;7.22;96.57
28181;BME280;15464;50.988;10.318;2022-11-24T17:06:05;98723.44;;;7.20;96.89
28181;BME280;15464;50.988;10.318;2022-11-24T17:08:34;98721.75;;;7.19;97.20
28181;BME280;15464;50.988;10.318;2022-11-24T17:11:18;98728.22;;;7.15;97.76
28181;BME280;15464;50.988;10.318;2022-11-24T17:13:46;98733.50;;;7.15;98.38
28181;BME280;15464;50.988;10.318;2022-11-24T17:16:17;98737.06;;;7.14;98.81
28181;BME280;15464;50.988;10.318;2022-11-24T17:18:44;98730.00;;;7.15;98.60
28181;BME280;15464;50.988;10.318;2022-11-24T17:21:29;98733.69;;;7.12;98.76
28181;BME280;15464;50.988;10.318;2022-11-24T17:24:00;98737.31;;;7.11;98.89
28181;BME280;15464;50.988;10.318;2022-11-24T17:26:31;98735.38;;;7.13;98.79
28181;BME280;15464;50.988;10.318;2022-11-24T17:28:58;98736.00;;;7.17;98.23
28181;BME280;15464;50.988;10.318;2022-11-24T17:31:27;98736.13;;;7.15;98.35
28181;BME280;15464;50.988;10.318;2022-11-24T17:33:56;98735.88;;;7.18;98.26
28181;BME280;15464;50.988;10.318;2022-11-24T17:36:24;98731.59;;;7.17;98.30
28181;BME280;15464;50.988;10.318;2022-11-24T17:38:51;98737.72;;;7.18;98.20
28181;BME280;15464;50.988;10.318;2022-11-24T17:41:18;98738.50;;;7.18;98.05
28181;BME280;15464;50.988;10.318;2022-11-24T17:43:49;98740.22;;;7.19;98.24
28181;BME280;15464;50.988;10.318;2022-11-24T17:46:16;98745.25;;;7.22;97.68
28181;BME280;15464;50.988;10.318;2022-11-24T17:48:43;98753.19;;;7.22;97.56
28181;BME280;15464;50.988;10.318;2022-11-24T17:51:12;98754.13;;;7.21;97.48
28181;BME280;15464;50.988;10.318;2022-11-24T17:53:40;98749.44;;;7.25;97.64
28181;BME280;15464;50.988;10.318;2022-11-24T17:56:11;98751.13;;;7.26;97.12
28181;BME280;15464;50.988;10.318;2022-11-24T17:58:38;98756.56;;;7.24;96.91
28181;BME280;15464;50.988;10.318;2022-11-24T18:01:09;98759.41;;;7.21;97.00
28181;BME280;15464;50.988;10.318;2022-11-24T18:03:38;98759.41;;;7.21;97.00
28181;BME280;15464;50.988;10.318;2022-11-24T18:06:05;98770.16;;;7.18;97.11
28181;BME280;15464;50.988;10.318;2022-11-24T18:08:33;98762.00;;;7.10;97.26
28181;BME280;15464;50.988;10.318;2022-11-24T18:11:07;98762.34;;;7.06;97.58
28181;BME280;15464;50.988;10.318;2022-11-24T18:13:34;98768.56;;;7.05;97.16
28181;BME280;15464;50.988;10.318;2022-11-24T18:16:21;98769.88;;;6.99;97.72
28181;BME280;15464;50.988;10.318;2022-11-24T18:18:53;98770.09;;;6.96;97.69
28181;BME280;15464;50.988;10.318;2022-11-24T18:21:32;98769.34;;;6.94;97.81
